createdAt,value
2017-05-31T00:03:46.131Z,14.6
2017-05-31T00:14:00.897Z,14.6
2017-05-31T00:24:14.767Z,14.2
2017-05-31T00:34:29.332Z,14.3
2017-05-31T00:44:44.824Z,14.1
2017-05-31T00:54:59.081Z,14.1
2017-05-31T01:05:12.962Z,14
2017-05-31T01:15:28.409Z,13.6
2017-05-31T01:25:43.238Z,13.5
2017-05-31T01:35:57.447Z,13.5
2017-05-31T01:46:12.559Z,13.5
2017-05-31T01:56:28.121Z,13.2
2017-05-31T02:06:42.743Z,12.8
2017-05-31T02:16:57.053Z,13.1
2017-05-31T02:27:12.006Z,13.2
2017-05-31T02:37:25.900Z,13.3
2017-05-31T02:47:40.964Z,13.3
2017-05-31T02:57:56.483Z,13.9
2017-05-31T03:08:11.187Z,13.9
2017-05-31T03:18:25.300Z,13.9
2017-05-31T03:28:39.508Z,13.8
2017-05-31T03:38:54.998Z,13.5
2017-05-31T03:49:10.201Z,13.1
2017-05-31T03:59:25.283Z,13.2
2017-05-31T04:09:39.925Z,13.3
2017-05-31T04:19:54.740Z,13
2017-05-31T04:30:09.954Z,12.9
2017-05-31T04:40:24.632Z,13.2
2017-05-31T04:50:38.851Z,13.8
2017-05-31T05:00:52.809Z,14
2017-05-31T05:11:07.026Z,14.6
2017-05-31T05:21:22.775Z,14.7
2017-05-31T05:31:38.027Z,15.7
2017-05-31T05:41:52.610Z,16
2017-05-31T05:52:06.824Z,16.1
2017-05-31T06:02:20.972Z,16
2017-05-31T06:12:35.916Z,17
2017-05-31T06:22:50.170Z,18.3
2017-05-31T06:33:06.052Z,18.4
2017-05-31T06:43:20.120Z,18.9
2017-05-31T06:53:35.932Z,19.1
2017-05-31T07:03:51.670Z,19.4
2017-05-31T07:14:06.262Z,20.6
2017-05-31T07:24:20.832Z,21.5
2017-05-31T07:34:35.901Z,20.4
2017-05-31T07:44:51.512Z,21.1
2017-05-31T07:55:05.448Z,21.2
2017-05-31T08:05:19.513Z,22
2017-05-31T08:15:35.023Z,22
2017-05-31T08:25:50.095Z,22
2017-05-31T08:36:04.392Z,21.4
2017-05-31T08:46:19.995Z,22.6
2017-05-31T08:56:35.660Z,22.2
2017-05-31T09:06:49.823Z,21
2017-05-31T09:17:04.259Z,20.7
2017-05-31T09:27:20.045Z,21
2017-05-31T09:37:34.405Z,21.7
2017-05-31T09:47:49.617Z,21.3
2017-05-31T09:58:04.539Z,23.3
2017-05-31T10:08:19.982Z,21.3
2017-05-31T10:18:35.323Z,22
2017-05-31T10:28:50.637Z,23.8
2017-05-31T10:39:05.884Z,22.6
2017-05-31T10:49:21.221Z,21.1
2017-05-31T10:59:36.866Z,21.3
2017-05-31T11:09:51.357Z,22.6
2017-05-31T11:20:06.202Z,24.6
2017-05-31T11:30:21.633Z,24.3
2017-05-31T11:40:36.051Z,24.4
2017-05-31T11:50:50.899Z,24.5
2017-05-31T12:01:06.556Z,25.2
2017-05-31T12:11:20.830Z,23.7
2017-05-31T12:21:36.241Z,21.8
2017-05-31T12:31:51.449Z,21.1
2017-05-31T12:42:06.672Z,20.8
2017-05-31T12:52:20.989Z,20.7
2017-05-31T13:02:36.211Z,20.9
2017-05-31T13:12:50.399Z,22.3
2017-05-31T13:23:05.886Z,22.8
2017-05-31T13:33:20.613Z,21.7
2017-05-31T13:43:35.235Z,21.1
2017-05-31T13:53:49.209Z,20.7
2017-05-31T14:04:03.833Z,20.6
2017-05-31T14:14:18.765Z,20.7
2017-05-31T14:24:34.073Z,20.7
2017-05-31T14:34:49.579Z,21.6
2017-05-31T14:45:04.859Z,23.9
2017-05-31T14:55:18.951Z,23.8
2017-05-31T15:05:33.910Z,25.4
2017-05-31T15:15:49.669Z,25.2
2017-05-31T15:26:03.660Z,24.9
2017-05-31T15:36:18.387Z,23.7
2017-05-31T15:46:32.574Z,23.7
2017-05-31T15:56:47.364Z,24.1
2017-05-31T16:07:02.291Z,24.4
2017-05-31T16:17:16.770Z,23.9
2017-05-31T16:27:32.197Z,24.1
2017-05-31T16:37:48.045Z,23.1
2017-05-31T16:48:03.259Z,23.7
2017-05-31T16:58:18.192Z,23.5
2017-05-31T17:08:32.155Z,23.8
2017-05-31T17:18:47.156Z,23.5
2017-05-31T17:29:02.634Z,22.8
2017-05-31T17:39:17.121Z,21.9
2017-05-31T17:49:32.182Z,21.6
2017-05-31T17:59:47.770Z,21
2017-05-31T18:10:02.196Z,20.4
2017-05-31T18:20:17.446Z,20.3
2017-05-31T18:30:31.413Z,19.8
2017-05-31T18:40:46.072Z,19.4
2017-05-31T18:51:00.704Z,19.6
2017-05-31T19:01:15.831Z,19.3
2017-05-31T19:11:29.953Z,19
2017-05-31T19:21:44.491Z,18.7
2017-05-31T19:31:58.546Z,18.3
2017-05-31T19:42:12.642Z,18
2017-05-31T19:52:28.104Z,17.6
2017-05-31T20:02:43.194Z,17
2017-05-31T20:12:56.983Z,17.4
2017-05-31T20:23:10.903Z,17.2
2017-05-31T20:33:25.742Z,16.9
2017-05-31T20:43:40.406Z,16.5
2017-05-31T20:53:55.286Z,15.6
2017-05-31T21:04:10.876Z,16
2017-05-31T21:14:26.010Z,16
2017-05-31T21:24:41.243Z,16.1
2017-05-31T21:34:55.242Z,15.7
2017-05-31T21:45:10.425Z,15.3
2017-05-31T21:55:24.865Z,14.7
2017-05-31T22:05:39.721Z,14.4
2017-05-31T22:15:54.960Z,14.1
2017-05-31T22:26:09.905Z,13.5
2017-05-31T22:36:25.559Z,13.8
2017-05-31T22:46:40.420Z,13.8
2017-05-31T22:56:54.793Z,13.7
2017-05-31T23:07:10.546Z,13.5
2017-05-31T23:17:24.508Z,13.5
2017-05-31T23:27:39.977Z,12.9
2017-05-31T23:37:54.180Z,12.1
2017-05-31T23:48:08.502Z,11.7
2017-05-31T23:58:24.053Z,11.3
